Time;durP1;ratioP1;P1;durP2;ratioP2;P2;SDS_P1;SDS_P2;PMS_P1;PMS_P2;Temp;Humidity;BMP_temperature;BMP_pressure;BME280_temperature;BME280_humidity;BME280_pressure;Samples;Min_cycle;Max_cycle;Signal;HPM_P1;HPM_P2
2023/11/17 00:01:47;;;;;;;4.60;2.17;;;;;;;4.06;100.00;100345.44;5188653;28;20445;-73
2023/11/17 00:04:19;;;;;;;4.72;2.53;;;;;;;4.09;100.00;100345.38;5197934;28;20034;-74
2023/11/17 00:06:49;;;;;;;4.50;2.42;;;;;;;4.13;100.00;100354.81;5201484;28;20347;-74
2023/11/17 00:09:19;;;;;;;6.32;2.25;;;;;;;4.26;100.00;100355.53;5200332;28;20112;-74
2023/11/17 00:11:50;;;;;;;6.20;2.63;;;;;;;4.23;100.00;100359.00;5199657;28;20029;-74
2023/11/17 00:14:20;;;;;;;3.85;2.35;;;;;;;4.25;100.00;100354.66;5200382;28;20448;-73
2023/11/17 00:16:50;;;;;;;5.35;2.60;;;;;;;4.15;100.00;100355.63;5202021;28;20442;-72
2023/11/17 00:19:20;;;;;;;4.65;2.53;;;;;;;4.20;100.00;100361.63;5174590;28;20120;-72
2023/11/17 00:21:51;;;;;;;6.20;2.85;;;;;;;4.38;100.00;100371.72;5200606;28;20044;-73
2023/11/17 00:24:22;;;;;;;5.20;2.70;;;;;;;4.44;100.00;100373.38;5198706;28;20040;-74
2023/11/17 00:26:52;;;;;;;5.70;2.58;;;;;;;4.21;100.00;100381.44;5199978;28;20025;-73
2023/11/17 00:29:23;;;;;;;4.50;2.53;;;;;;;4.41;100.00;100373.38;5198448;28;20037;-73
2023/11/17 00:31:55;;;;;;;6.55;2.58;;;;;;;4.29;100.00;100379.59;5182362;28;20112;-73
2023/11/17 00:34:25;;;;;;;4.90;2.35;;;;;;;4.30;100.00;100380.47;5205655;28;20037;-73
2023/11/17 00:36:58;;;;;;;5.57;2.50;;;;;;;4.35;100.00;100400.22;5208290;28;20036;-74
2023/11/17 00:39:28;;;;;;;4.53;2.20;;;;;;;4.06;100.00;100389.38;5203012;28;20029;-74
2023/11/17 00:41:58;;;;;;;7.28;2.33;;;;;;;4.05;100.00;100400.59;5203232;28;20103;-74
2023/11/17 00:44:30;;;;;;;4.35;2.60;;;;;;;4.11;100.00;100404.84;5202993;28;20033;-72
2023/11/17 00:47:04;;;;;;;4.78;2.65;;;;;;;4.18;100.00;100398.72;5204688;28;20052;-74
2023/11/17 00:49:34;;;;;;;5.57;2.88;;;;;;;4.06;100.00;100410.06;5185276;28;20051;-73
2023/11/17 00:52:05;;;;;;;7.43;3.00;;;;;;;4.13;100.00;100406.53;5184452;28;20025;-72
2023/11/17 00:54:42;;;;;;;5.10;2.88;;;;;;;4.25;100.00;100408.09;5201008;28;20256;-73
2023/11/17 00:57:13;;;;;;;4.45;3.00;;;;;;;4.25;100.00;100406.38;5203329;28;20271;-74
2023/11/17 00:59:43;;;;;;;4.43;2.90;;;;;;;4.41;100.00;100415.66;5203752;28;20550;-73
2023/11/17 01:02:15;;;;;;;4.65;2.70;;;;;;;4.26;100.00;100409.84;5201296;28;20453;-73
2023/11/17 01:04:45;;;;;;;7.25;3.22;;;;;;;4.14;100.00;100409.97;5184145;28;20055;-73
2023/11/17 01:07:17;;;;;;;6.68;3.20;;;;;;;4.33;100.00;100407.13;5201137;28;20136;-73
2023/11/17 01:09:48;;;;;;;5.35;3.33;;;;;;;4.24;100.00;100406.38;5184394;28;20393;-73
2023/11/17 01:12:21;;;;;;;5.55;3.25;;;;;;;4.20;100.00;100405.59;5184330;28;20021;-72
2023/11/17 01:14:51;;;;;;;6.95;2.95;;;;;;;4.43;100.00;100408.72;5201422;28;20017;-74
2023/11/17 01:17:22;;;;;;;5.80;2.95;;;;;;;4.43;100.00;100413.88;5186738;28;20072;-74
2023/11/17 01:19:52;;;;;;;5.07;2.83;;;;;;;4.46;100.00;100413.00;5184837;28;20070;-75
2023/11/17 01:22:23;;;;;;;4.47;2.83;;;;;;;4.53;100.00;100414.63;5193376;28;20039;-74
2023/11/17 01:24:53;;;;;;;9.27;3.30;;;;;;;4.47;100.00;100419.88;5189897;28;20037;-74
2023/11/17 01:27:24;;;;;;;5.07;2.80;;;;;;;4.54;100.00;100421.50;5205301;28;20040;-69
2023/11/17 01:29:54;;;;;;;7.75;2.67;;;;;;;4.59;100.00;100420.56;5206867;28;20029;-73
2023/11/17 01:32:24;;;;;;;4.80;2.50;;;;;;;4.68;100.00;100420.44;5208025;28;20025;-70
2023/11/17 01:34:54;;;;;;;4.70;2.78;;;;;;;4.64;100.00;100423.94;5212169;28;20244;-74
2023/11/17 01:37:25;;;;;;;4.93;2.88;;;;;;;4.60;100.00;100424.84;5203651;28;20029;-72
2023/11/17 01:39:55;;;;;;;6.60;2.90;;;;;;;4.48;100.00;100421.59;5190226;28;20539;-74
2023/11/17 01:42:31;;;;;;;4.65;2.53;;;;;;;4.47;100.00;100423.31;5185285;28;20055;-72
2023/11/17 01:45:07;;;;;;;6.22;2.85;;;;;;;4.45;100.00;100438.00;5201415;28;20029;-73
2023/11/17 01:47:42;;;;;;;4.43;2.63;;;;;;;4.52;100.00;100429.31;5201886;28;20512;-74
2023/11/17 01:50:14;;;;;;;5.38;2.53;;;;;;;4.62;100.00;100425.69;5204451;28;20033;-73
2023/11/17 01:52:44;;;;;;;6.80;2.55;;;;;;;4.62;100.00;100430.88;5186949;28;20188;-73
2023/11/17 01:55:16;;;;;;;6.45;2.72;;;;;;;4.67;100.00;100434.22;5201930;28;20402;-74
2023/11/17 01:57:47;;;;;;;4.20;2.03;;;;;;;4.54;100.00;100437.03;5203350;28;20037;-74
2023/11/17 02:00:19;;;;;;;5.60;3.00;;;;;;;4.45;100.00;100443.19;5206881;28;20506;-70
2023/11/17 02:02:51;;;;;;;4.43;2.80;;;;;;;4.60;100.00;100453.31;5200643;28;20238;-73
2023/11/17 02:05:24;;;;;;;5.38;3.05;;;;;;;4.57;100.00;100458.53;5205573;28;20028;-74
2023/11/17 02:08:16;;;;;;;5.97;2.88;;;;;;;4.76;100.00;100459.13;5190397;28;20407;-73
2023/11/17 02:11:02;;;;;;;6.03;3.03;;;;;;;4.67;100.00;100444.59;5201325;28;20025;-71
2023/11/17 02:13:47;;;;;;;6.03;2.60;;;;;;;4.72;100.00;100450.56;5199990;28;20450;-74
2023/11/17 02:16:24;;;;;;;4.68;2.70;;;;;;;4.79;100.00;100459.13;5198408;28;20036;-73
2023/11/17 02:18:59;;;;;;;7.15;2.60;;;;;;;4.76;100.00;100456.53;5203429;28;20056;-73
2023/11/17 02:21:31;;;;;;;4.27;2.20;;;;;;;4.78;100.00;100455.66;5200406;28;20056;-73
2023/11/17 02:24:06;;;;;;;5.70;2.28;;;;;;;4.70;100.00;100454.91;5202294;28;20319;-72
2023/11/17 02:27:00;;;;;;;4.10;2.22;;;;;;;4.68;100.00;100467.03;5201417;28;20029;-73
2023/11/17 02:29:44;;;;;;;6.55;2.60;;;;;;;4.68;100.00;100469.63;5202070;28;20467;-74
2023/11/17 02:32:16;;;;;;;4.15;2.00;;;;;;;4.67;100.00;100474.81;5184622;28;20112;-73
2023/11/17 02:34:46;;;;;;;3.67;2.03;;;;;;;4.70;100.00;100479.94;5200339;28;20021;-73
2023/11/17 02:37:18;;;;;;;3.53;2.03;;;;;;;4.69;100.00;100480.81;5202431;28;20036;-72
2023/11/17 02:39:49;;;;;;;3.28;1.90;;;;;;;4.62;100.00;100479.19;5199915;28;20033;-72
2023/11/17 02:42:24;;;;;;;5.07;2.35;;;;;;;4.59;100.00;100487.84;5199908;28;20327;-70
2023/11/17 02:45:00;;;;;;;3.20;2.10;;;;;;;4.54;100.00;100489.63;5202636;28;20029;-74
2023/11/17 02:47:35;;;;;;;3.40;1.98;;;;;;;4.65;100.00;100498.09;5183080;28;20057;-73
2023/11/17 02:50:10;;;;;;;5.35;2.15;;;;;;;4.49;100.00;100504.34;5199423;28;20040;-68
2023/11/17 02:52:54;;;;;;;2.67;2.00;;;;;;;4.61;100.00;100506.78;5197529;28;20257;-74
2023/11/17 02:55:27;;;;;;;3.13;1.80;;;;;;;4.65;100.00;100511.03;5184807;28;20502;-72
2023/11/17 02:57:59;;;;;;;3.92;2.30;;;;;;;4.66;100.00;100517.94;5200641;28;20124;-73
2023/11/17 03:00:30;;;;;;;3.00;1.65;;;;;;;4.63;100.00;100517.97;5199456;28;20151;-73
2023/11/17 03:03:01;;;;;;;4.45;2.20;;;;;;;4.63;100.00;100525.72;5203315;28;20033;-72
2023/11/17 03:05:32;;;;;;;3.90;2.15;;;;;;;4.63;100.00;100525.72;5198244;28;20495;-74
2023/11/17 03:08:02;;;;;;;4.07;2.25;;;;;;;4.65;100.00;100523.13;5186318;28;20044;-73
2023/11/17 03:10:34;;;;;;;2.60;1.80;;;;;;;4.66;100.00;100541.22;5201666;28;20307;-73
2023/11/17 03:13:04;;;;;;;3.92;2.15;;;;;;;4.53;100.00;100542.25;5180724;28;20308;-73
2023/11/17 03:15:36;;;;;;;3.28;2.03;;;;;;;4.56;100.00;100539.63;5197571;28;20044;-70
2023/11/17 03:18:09;;;;;;;5.03;1.90;;;;;;;4.60;100.00;100550.81;5201439;28;20034;-72
2023/11/17 03:20:40;;;;;;;3.45;2.03;;;;;;;4.57;100.00;100541.34;5200359;28;20112;-72
2023/11/17 03:23:10;;;;;;;3.17;1.85;;;;;;;4.53;100.00;100544.84;5200154;28;20117;-74
2023/11/17 03:25:40;;;;;;;3.60;2.13;;;;;;;4.47;100.00;100547.50;5200069;28;20033;-74
2023/11/17 03:28:13;;;;;;;3.90;2.20;;;;;;;4.49;100.00;100548.31;5203048;28;20029;-73
2023/11/17 03:30:43;;;;;;;2.92;1.70;;;;;;;4.55;100.00;100548.28;5200555;28;21359;-73
2023/11/17 03:33:13;;;;;;;4.45;2.17;;;;;;;4.54;100.00;100546.56;5183413;28;20398;-69
2023/11/17 03:35:44;;;;;;;3.42;2.13;;;;;;;4.59;100.00;100543.91;5199796;28;20043;-72
2023/11/17 03:38:14;;;;;;;3.67;2.28;;;;;;;4.62;100.00;100547.31;5199563;28;20041;-70
2023/11/17 03:40:45;;;;;;;4.95;2.10;;;;;;;4.68;100.00;100542.09;5202426;28;20033;-73
2023/11/17 03:43:18;;;;;;;5.65;2.17;;;;;;;4.49;100.00;100553.50;5202090;28;20045;-73
2023/11/17 03:45:48;;;;;;;4.60;2.20;;;;;;;4.53;100.00;100550.03;5201214;28;20017;-73
2023/11/17 03:48:18;;;;;;;3.85;1.90;;;;;;;4.54;100.00;100551.75;5199791;28;20025;-70
2023/11/17 03:50:49;;;;;;;6.53;2.40;;;;;;;4.57;100.00;100549.13;5199439;28;20425;-72
2023/11/17 03:53:19;;;;;;;5.68;2.63;;;;;;;4.62;100.00;100555.06;5200912;28;20025;-69
2023/11/17 03:55:50;;;;;;;5.60;2.80;;;;;;;4.59;100.00;100562.88;5183664;28;20024;-72
2023/11/17 03:58:21;;;;;;;4.93;2.83;;;;;;;4.58;100.00;100562.88;5199014;28;20084;-71
2023/11/17 04:00:52;;;;;;;5.10;2.80;;;;;;;4.66;100.00;100567.09;5199727;28;20047;-72
2023/11/17 04:03:23;;;;;;;5.10;2.33;;;;;;;4.64;100.00;100566.25;5199289;28;20067;-73
2023/11/17 04:05:53;;;;;;;4.57;2.22;;;;;;;4.70;100.00;100563.63;5199517;28;20228;-73
2023/11/17 04:08:23;;;;;;;5.18;2.78;;;;;;;4.79;100.00;100560.91;5201383;28;20039;-69
2023/11/17 04:10:54;;;;;;;8.68;2.63;;;;;;;4.78;100.00;100564.38;5205835;28;20074;-74
2023/11/17 04:13:24;;;;;;;5.13;2.42;;;;;;;4.74;100.00;100565.28;5202563;28;20025;-69
2023/11/17 04:15:54;;;;;;;6.13;2.60;;;;;;;4.78;100.00;100563.53;5187582;28;20140;-73
2023/11/17 04:18:25;;;;;;;4.10;2.35;;;;;;;4.83;100.00;100569.50;5203062;28;20029;-70
2023/11/17 04:20:55;;;;;;;6.38;2.42;;;;;;;4.82;100.00;100576.41;5204559;28;20116;-72
2023/11/17 04:23:25;;;;;;;7.57;3.28;;;;;;;4.86;100.00;100570.31;5187811;28;20021;-70
2023/11/17 04:25:56;;;;;;;7.50;3.45;;;;;;;4.94;100.00;100571.06;5186776;28;20068;-72
2023/11/17 04:28:26;;;;;;;9.35;4.38;;;;;;;4.74;100.00;100574.78;5202259;28;20045;-70
2023/11/17 04:30:56;;;;;;;5.93;3.65;;;;;;;4.87;100.00;100576.34;5203966;28;20109;-73
2023/11/17 04:33:27;;;;;;;6.78;3.42;;;;;;;4.87;100.00;100574.63;5202375;28;20021;-73
2023/11/17 04:35:58;;;;;;;6.72;3.45;;;;;;;4.93;100.00;100576.25;5204036;28;20033;-73
2023/11/17 04:38:29;;;;;;;5.03;2.70;;;;;;;4.92;100.00;100580.59;5202789;28;20245;-72
2023/11/17 04:41:00;;;;;;;6.90;3.50;;;;;;;4.90;100.00;100586.66;5188883;28;20065;-73
2023/11/17 04:43:30;;;;;;;6.60;2.85;;;;;;;4.82;100.00;100599.69;5202853;28;20056;-73
2023/11/17 04:46:03;;;;;;;5.10;2.85;;;;;;;4.77;100.00;100585.97;5203004;28;20411;-73
2023/11/17 04:48:34;;;;;;;9.45;3.25;;;;;;;4.86;100.00;100585.84;5201905;28;20024;-72
2023/11/17 04:51:05;;;;;;;6.20;2.88;;;;;;;4.91;100.00;100599.59;5203099;28;20033;-73
2023/11/17 04:53:35;;;;;;;8.70;2.97;;;;;;;5.03;100.00;100593.41;5198280;28;20128;-71
2023/11/17 04:56:07;;;;;;;5.03;2.83;;;;;;;4.90;100.00;100590.13;5204198;28;20174;-70
2023/11/17 04:58:39;;;;;;;5.88;3.10;;;;;;;4.87;100.00;100602.22;5202447;28;20033;-73
2023/11/17 05:01:10;;;;;;;6.22;3.15;;;;;;;4.84;100.00;100597.94;5184361;28;20030;-73
2023/11/17 05:03:44;;;;;;;6.22;2.72;;;;;;;4.86;100.00;100601.38;5203115;28;20021;-73
2023/11/17 05:06:17;;;;;;;5.68;3.25;;;;;;;4.98;100.00;100600.38;5184189;28;20037;-73
2023/11/17 05:08:48;;;;;;;7.10;2.95;;;;;;;5.01;100.00;100600.34;5201975;28;20049;-72
2023/11/17 05:11:21;;;;;;;6.53;2.97;;;;;;;4.94;100.00;100602.13;5202212;28;20128;-73
2023/11/17 05:13:51;;;;;;;7.45;3.03;;;;;;;5.05;100.00;100608.03;5202282;28;20060;-73
2023/11/17 05:16:21;;;;;;;8.25;3.22;;;;;;;4.89;100.00;100606.53;5184024;28;20107;-71
2023/11/17 05:18:51;;;;;;;7.57;2.90;;;;;;;4.95;100.00;100609.03;5202602;28;20029;-72
2023/11/17 05:21:22;;;;;;;6.53;3.10;;;;;;;4.91;100.00;100620.31;5198531;28;20033;-72
2023/11/17 05:23:52;;;;;;;7.22;3.33;;;;;;;4.93;100.00;100608.19;5203170;28;20021;-73
2023/11/17 05:26:23;;;;;;;5.13;3.08;;;;;;;5.01;100.00;100616.72;5201774;28;20054;-73
2023/11/17 05:28:53;;;;;;;6.32;3.75;;;;;;;5.10;100.00;100619.19;5184728;28;20094;-74
2023/11/17 05:31:26;;;;;;;8.90;3.58;;;;;;;5.06;100.00;100617.53;5182804;28;20025;-73
2023/11/17 05:33:57;;;;;;;7.13;3.50;;;;;;;5.13;100.00;100621.75;5205712;28;20103;-72
2023/11/17 05:36:27;;;;;;;5.35;3.13;;;;;;;5.07;100.00;100619.25;5198223;28;20022;-74
2023/11/17 05:38:58;;;;;;;6.85;3.38;;;;;;;5.10;100.00;100621.78;5200223;28;20120;-75
2023/11/17 05:41:29;;;;;;;7.68;3.40;;;;;;;5.09;100.00;100620.06;5200039;28;20048;-75
2023/11/17 05:43:59;;;;;;;8.63;3.28;;;;;;;5.13;100.00;100616.56;5201327;28;20101;-75
2023/11/17 05:46:31;;;;;;;9.57;3.47;;;;;;;5.20;100.00;100613.03;5199558;28;20069;-75
2023/11/17 05:49:01;;;;;;;7.05;3.33;;;;;;;5.28;100.00;100621.53;5183814;28;20501;-75
2023/11/17 05:51:31;;;;;;;7.95;3.47;;;;;;;5.35;100.00;100617.97;5199521;28;20048;-74
2023/11/17 05:54:02;;;;;;;7.57;3.55;;;;;;;5.28;100.00;100625.84;5205260;28;20025;-74
2023/11/17 05:56:32;;;;;;;9.32;3.25;;;;;;;5.30;100.00;100624.97;5201492;28;20017;-74
2023/11/17 05:59:02;;;;;;;8.95;3.78;;;;;;;5.20;100.00;100628.56;5202094;28;20036;-74
2023/11/17 06:01:32;;;;;;;7.88;3.30;;;;;;;5.15;100.00;100625.16;5199827;28;20101;-74
2023/11/17 06:04:03;;;;;;;6.53;3.45;;;;;;;5.16;100.00;100628.63;5187819;28;20025;-72
2023/11/17 06:06:33;;;;;;;6.72;3.70;;;;;;;5.23;100.00;100623.34;5200804;28;20037;-74
2023/11/17 06:09:04;;;;;;;7.15;3.65;;;;;;;5.34;100.00;100621.44;5204271;28;20384;-75
2023/11/17 06:11:36;;;;;;;10.27;3.83;;;;;;;5.38;100.00;100627.44;5200567;28;20056;-75
2023/11/17 06:14:07;;;;;;;5.13;3.03;;;;;;;5.30;100.00;100624.97;5200865;28;20031;-74
2023/11/17 06:16:38;;;;;;;8.88;3.30;;;;;;;5.36;100.00;100634.41;5201129;28;20025;-75
2023/11/17 06:19:12;;;;;;;7.93;3.45;;;;;;;5.37;100.00;100636.97;5201571;28;20044;-75
2023/11/17 06:21:42;;;;;;;8.23;3.75;;;;;;;5.34;100.00;100621.44;5183202;28;20032;-75
2023/11/17 06:24:15;;;;;;;8.15;3.60;;;;;;;5.35;100.00;100633.53;5203803;28;20479;-75
2023/11/17 06:26:46;;;;;;;8.25;3.20;;;;;;;5.43;100.00;100634.28;5183511;28;20024;-74
2023/11/17 06:29:18;;;;;;;8.57;3.63;;;;;;;5.42;100.00;100633.41;5200662;28;20029;-73
2023/11/17 06:31:49;;;;;;;6.57;3.50;;;;;;;5.38;100.00;100644.72;5200263;28;20028;-75
2023/11/17 06:34:20;;;;;;;9.75;4.15;;;;;;;5.25;100.00;100637.13;5182947;28;20021;-74
2023/11/17 06:36:51;;;;;;;9.38;3.22;;;;;;;5.32;100.00;100643.94;5201128;28;20025;-74
2023/11/17 06:39:23;;;;;;;8.82;3.28;;;;;;;5.52;100.00;100645.38;5207118;28;20021;-71
2023/11/17 06:41:54;;;;;;;8.60;3.42;;;;;;;5.53;100.00;100651.41;5182755;28;20518;-74
2023/11/17 06:44:25;;;;;;;7.32;3.17;;;;;;;5.57;100.00;100659.13;5201605;28;20040;-71
2023/11/17 06:46:55;;;;;;;7.55;4.05;;;;;;;5.64;100.00;100667.66;5200579;28;20044;-70
2023/11/17 06:49:27;;;;;;;7.75;2.88;;;;;;;5.63;100.00;100669.44;5202518;28;20026;-71
2023/11/17 06:51:57;;;;;;;8.65;3.67;;;;;;;5.60;100.00;100673.78;5202742;28;20033;-72
2023/11/17 06:54:27;;;;;;;7.40;3.40;;;;;;;5.65;100.00;100675.44;5204849;28;20111;-72
2023/11/17 06:56:58;;;;;;;6.43;3.10;;;;;;;5.68;100.00;100679.69;5209227;28;20401;-73
2023/11/17 06:59:28;;;;;;;8.45;3.10;;;;;;;5.57;100.00;100674.69;5208381;28;20389;-74
2023/11/17 07:02:00;;;;;;;5.35;3.10;;;;;;;5.69;100.00;100681.41;5203570;28;20037;-73
2023/11/17 07:04:30;;;;;;;7.10;3.10;;;;;;;5.56;100.00;100669.53;5200988;28;20115;-73
2023/11/17 07:07:00;;;;;;;6.00;2.70;;;;;;;5.61;100.00;100678.94;5203573;28;20166;-73
2023/11/17 07:09:32;;;;;;;4.47;2.60;;;;;;;5.54;100.00;100685.09;5191758;28;20025;-73
2023/11/17 07:12:03;;;;;;;5.30;2.55;;;;;;;5.56;100.00;100679.91;5208265;28;20033;-71
2023/11/17 07:14:33;;;;;;;6.78;2.50;;;;;;;5.68;100.00;100690.06;5205368;28;20048;-73
2023/11/17 07:17:04;;;;;;;5.18;2.35;;;;;;;5.65;100.00;100682.34;5202679;28;20442;-73
2023/11/17 07:19:35;;;;;;;8.48;2.50;;;;;;;5.73;100.00;100683.94;5203034;28;20697;-73
2023/11/17 07:22:05;;;;;;;7.88;2.90;;;;;;;5.71;100.00;100697.84;5210087;28;20122;-73
2023/11/17 07:24:35;;;;;;;5.25;2.60;;;;;;;5.69;100.00;100692.66;5186807;28;20037;-73
2023/11/17 07:27:07;;;;;;;5.00;2.33;;;;;;;5.78;100.00;100694.25;5190720;28;20028;-71
2023/11/17 07:29:38;;;;;;;6.25;2.55;;;;;;;5.69;100.00;100707.34;5205722;28;20025;-73
2023/11/17 07:32:08;;;;;;;5.13;2.83;;;;;;;5.60;100.00;100702.28;5202911;28;20032;-73
2023/11/17 07:34:39;;;;;;;6.80;2.75;;;;;;;5.58;100.00;100715.28;5202562;28;20029;-73
2023/11/17 07:37:09;;;;;;;54.10;19.27;;;;;;;5.67;100.00;100715.16;5190785;28;20029;-72
2023/11/17 07:39:40;;;;;;;22.92;9.95;;;;;;;5.68;100.00;100726.38;5207092;28;20420;-71
2023/11/17 07:42:10;;;;;;;8.38;3.00;;;;;;;5.82;100.00;100724.47;5206038;28;20039;-72
2023/11/17 07:44:41;;;;;;;6.35;2.97;;;;;;;5.93;100.00;100728.63;5189686;28;20375;-72
2023/11/17 07:47:12;;;;;;;7.75;3.58;;;;;;;5.81;100.00;100728.81;5228512;22;20049;-72
2023/11/17 07:49:43;;;;;;;6.70;3.28;;;;;;;5.78;100.00;100723.66;5208574;28;20034;-73
2023/11/17 07:52:14;;;;;;;6.40;3.33;;;;;;;5.80;100.00;100731.44;5203556;28;20088;-72
2023/11/17 07:54:46;;;;;;;5.53;3.22;;;;;;;5.81;100.00;100733.16;5208263;28;20159;-72
2023/11/17 07:57:18;;;;;;;8.35;3.53;;;;;;;5.95;100.00;100733.81;5210620;28;20029;-72
2023/11/17 07:59:48;;;;;;;7.88;3.33;;;;;;;5.85;100.00;100738.28;5208091;28;20040;-72
2023/11/17 08:02:18;;;;;;;6.55;3.33;;;;;;;5.83;100.00;100741.75;5212703;28;20029;-72
2023/11/17 08:04:49;;;;;;;7.97;3.10;;;;;;;5.93;100.00;100743.34;5207787;28;20558;-72
2023/11/17 08:07:19;;;;;;;6.63;3.55;;;;;;;5.96;100.00;100739.00;5212715;28;20541;-72
2023/11/17 08:09:49;;;;;;;6.78;3.20;;;;;;;6.00;100.00;100745.84;5210986;28;20112;-72
2023/11/17 08:12:20;;;;;;;5.72;3.20;;;;;;;5.86;100.00;100752.06;5205226;28;20539;-72
2023/11/17 08:14:53;;;;;;;7.53;4.20;;;;;;;6.04;100.00;100744.91;5209307;28;20029;-72
2023/11/17 08:17:23;;;;;;;6.78;3.47;;;;;;;6.11;100.00;100733.53;5211455;28;20056;-72
2023/11/17 08:19:54;;;;;;;9.50;4.15;;;;;;;6.00;100.00;100744.97;5211185;28;20029;-72
2023/11/17 08:22:29;;;;;;;8.25;4.00;;;;;;;5.98;100.00;100755.38;5206615;28;20441;-71
2023/11/17 08:24:59;;;;;;;7.28;3.75;;;;;;;6.00;100.00;100751.03;5213278;28;20036;-72
2023/11/17 08:27:30;;;;;;;7.60;3.53;;;;;;;6.11;100.00;100758.66;5207729;28;20036;-71
2023/11/17 08:30:00;;;;;;;6.97;3.50;;;;;;;6.06;100.00;100760.47;5211676;28;20448;-73
2023/11/17 08:32:30;;;;;;;6.85;3.10;;;;;;;6.12;100.00;100756.00;5205312;28;20022;-72
2023/11/17 08:35:01;;;;;;;5.40;3.38;;;;;;;6.12;100.00;100758.59;5213708;28;20021;-73
2023/11/17 08:37:32;;;;;;;5.80;3.38;;;;;;;6.13;100.00;100756.88;5209492;28;20510;-72
2023/11/17 08:40:08;;;;;;;8.75;3.45;;;;;;;6.11;100.00;100759.50;5212481;28;20024;-72
2023/11/17 08:42:39;;;;;;;6.18;3.50;;;;;;;6.26;100.00;100758.44;5204745;28;20029;-73
2023/11/17 08:45:12;;;;;;;5.72;3.17;;;;;;;6.22;100.00;100761.94;5213518;28;20033;-72
2023/11/17 08:47:45;;;;;;;7.53;3.63;;;;;;;6.53;100.00;100758.84;5207170;28;20148;-74
2023/11/17 08:50:15;;;;;;;9.93;3.40;;;;;;;6.44;100.00;100758.13;5181422;28;20049;-72
2023/11/17 08:52:47;;;;;;;6.45;3.25;;;;;;;6.62;100.00;100763.88;5207347;28;20458;-73
2023/11/17 08:55:17;;;;;;;5.80;3.20;;;;;;;6.63;100.00;100754.34;5210405;28;20552;-72
2023/11/17 08:57:48;;;;;;;6.55;2.88;;;;;;;6.70;100.00;100755.94;5212008;28;20028;-72
2023/11/17 09:00:22;;;;;;;5.93;3.03;;;;;;;6.83;100.00;100765.25;5208510;28;20025;-72
2023/11/17 09:02:54;;;;;;;5.47;3.00;;;;;;;7.02;99.62;100761.44;5213683;28;20111;-73
2023/11/17 09:05:25;;;;;;;5.40;2.35;;;;;;;7.16;98.84;100756.84;5211304;28;20574;-72
2023/11/17 09:07:56;;;;;;;5.00;2.70;;;;;;;6.90;98.17;100770.31;5210248;28;20034;-73
2023/11/17 09:10:26;;;;;;;5.10;2.40;;;;;;;7.16;98.92;100762.03;5210621;28;20026;-73
2023/11/17 09:12:56;;;;;;;8.05;2.80;;;;;;;7.31;98.50;100771.25;5207804;28;20037;-73
2023/11/17 09:15:33;;;;;;;5.82;2.50;;;;;;;7.48;97.27;100776.13;5204258;28;20426;-74
2023/11/17 09:18:03;;;;;;;5.45;2.60;;;;;;;7.41;97.24;100780.63;5206893;28;20390;-72
2023/11/17 09:20:34;;;;;;;4.97;2.58;;;;;;;7.42;97.08;100777.13;5206826;28;20018;-71
2023/11/17 09:23:06;;;;;;;8.38;2.53;;;;;;;7.36;97.07;100781.59;5212713;28;20025;-72
2023/11/17 09:25:36;;;;;;;4.65;2.90;;;;;;;7.56;95.43;100787.25;5202440;28;20033;-72
2023/11/17 09:28:06;;;;;;;12.18;5.20;;;;;;;7.57;96.25;100788.94;5209656;28;20064;-72
2023/11/17 09:30:37;;;;;;;9.60;4.35;;;;;;;7.41;97.70;100796.22;5209867;28;20395;-72
2023/11/17 09:33:08;;;;;;;6.80;2.90;;;;;;;7.54;95.78;100794.22;5202725;28;20033;-73
2023/11/17 09:35:39;;;;;;;6.03;3.13;;;;;;;7.59;95.09;100789.78;5210416;28;20144;-72
2023/11/17 09:38:11;;;;;;;3.58;2.22;;;;;;;7.75;95.24;100788.56;5209838;28;20112;-73
2023/11/17 09:40:41;;;;;;;8.57;3.53;;;;;;;7.71;94.84;100800.78;5203160;28;20025;-73
2023/11/17 09:43:18;;;;;;;9.35;3.00;;;;;;;7.72;95.57;100804.25;5207092;28;20093;-72
2023/11/17 09:45:59;;;;;;;11.43;3.53;;;;;;;7.96;93.60;100796.78;5205387;28;20028;-72
2023/11/17 09:48:32;;;;;;;12.77;4.25;;;;;;;7.85;92.49;100783.16;5202321;28;20040;-71
2023/11/17 09:51:03;;;;;;;8.25;3.65;;;;;;;7.97;92.73;100793.31;5206371;28;20029;-72
2023/11/17 09:53:33;;;;;;;7.38;2.58;;;;;;;7.92;92.46;100792.56;5201598;28;20049;-73
2023/11/17 09:56:09;;;;;;;5.85;3.15;;;;;;;7.95;92.01;100789.00;5204977;28;20091;-72
2023/11/17 09:58:42;;;;;;;5.20;2.97;;;;;;;7.93;92.52;100790.78;5196188;28;20296;-72
2023/11/17 10:01:13;;;;;;;6.93;2.15;;;;;;;7.88;92.08;100790.88;5193670;28;20162;-72
2023/11/17 10:03:43;;;;;;;7.78;3.40;;;;;;;7.96;91.83;100794.19;5196415;28;21452;-71
2023/11/17 10:06:15;;;;;;;8.10;3.55;;;;;;;7.97;91.39;100787.22;5192895;28;20037;-72
2023/11/17 10:08:46;;;;;;;7.30;3.40;;;;;;;7.96;91.41;100791.59;5196337;28;20029;-72
2023/11/17 10:11:17;;;;;;;9.25;3.47;;;;;;;7.99;91.79;100788.91;5199364;28;20057;-72
2023/11/17 10:13:49;;;;;;;6.82;2.70;;;;;;;7.93;90.86;100786.44;5196068;28;20029;-73
2023/11/17 10:16:21;;;;;;;4.13;2.40;;;;;;;8.02;91.57;100790.59;5206027;28;20043;-72
2023/11/17 10:18:52;;;;;;;9.05;3.60;;;;;;;8.26;91.81;100792.69;5201234;28;20026;-72
2023/11/17 10:21:23;;;;;;;7.30;3.00;;;;;;;8.25;91.12;100791.81;5201236;28;20056;-73
2023/11/17 10:23:54;;;;;;;7.50;3.22;;;;;;;8.27;91.26;100792.66;5203920;28;20021;-73
2023/11/17 10:26:25;;;;;;;5.70;1.83;;;;;;;8.23;89.55;100790.16;5203238;28;20053;-72
2023/11/17 10:28:59;;;;;;;11.65;4.22;;;;;;;8.23;90.68;100791.00;5197140;28;20501;-72
2023/11/17 10:31:39;;;;;;;24.52;8.48;;;;;;;8.29;90.88;100785.66;5199815;28;20193;-71
2023/11/17 10:34:16;;;;;;;10.88;4.13;;;;;;;8.36;90.60;100795.03;5203542;28;20033;-72
2023/11/17 10:37:04;;;;;;;13.77;4.95;;;;;;;8.52;90.36;100793.78;5197514;28;20035;-73
2023/11/17 10:39:49;;;;;;;8.05;3.30;;;;;;;8.40;89.56;100801.03;5192979;28;20381;-73
2023/11/17 10:42:22;;;;;;;15.77;6.25;;;;;;;8.42;89.56;100801.84;5202305;28;20032;-72
2023/11/17 10:44:52;;;;;;;14.32;5.10;;;;;;;8.35;89.69;100806.34;5196782;28;20086;-73
2023/11/17 10:47:23;;;;;;;6.63;2.90;;;;;;;8.47;89.26;100800.00;5198880;28;20033;-73
2023/11/17 10:50:08;;;;;;;5.10;2.25;;;;;;;8.50;88.60;100806.00;5184795;28;20436;-72
2023/11/17 10:52:38;;;;;;;10.50;4.18;;;;;;;8.48;89.04;100801.69;5179133;28;20049;-72
2023/11/17 10:55:08;;;;;;;13.60;4.43;;;;;;;8.37;88.78;100806.31;5199332;28;20113;-73
2023/11/17 10:57:41;;;;;;;8.60;3.50;;;;;;;8.39;89.51;100802.78;5198797;28;20029;-72
2023/11/17 11:00:21;;;;;;;8.02;3.22;;;;;;;8.32;89.21;100806.41;5201322;28;20060;-72
2023/11/17 11:02:53;;;;;;;7.97;3.35;;;;;;;8.25;90.36;100811.81;5200449;28;20021;-72
2023/11/17 11:05:24;;;;;;;7.78;2.35;;;;;;;8.14;90.95;100800.72;5178823;28;20025;-72
2023/11/17 11:07:56;;;;;;;13.80;5.43;;;;;;;8.30;89.97;100805.59;5201772;28;20032;-72
2023/11/17 11:10:27;;;;;;;13.32;3.00;;;;;;;8.35;90.33;100801.13;5203210;28;20052;-72
2023/11/17 11:13:01;;;;;;;8.30;2.58;;;;;;;8.39;89.85;100810.59;5195446;28;20032;-71
2023/11/17 11:15:32;;;;;;;5.88;1.95;;;;;;;8.39;91.34;100802.78;5200128;28;20451;-73
2023/11/17 11:18:10;;;;;;;2.90;1.70;;;;;;;8.26;89.35;100811.78;5199230;28;20076;-72
2023/11/17 11:20:41;;;;;;;3.72;1.42;;;;;;;8.15;90.19;100816.31;5192271;28;20514;-72
2023/11/17 11:23:12;;;;;;;4.45;1.85;;;;;;;8.46;89.67;100806.97;5198843;28;20028;-72
2023/11/17 11:25:44;;;;;;;5.20;2.15;;;;;;;8.46;89.26;100809.56;5203491;28;20036;-72
2023/11/17 11:28:15;;;;;;;3.40;1.90;;;;;;;8.53;90.11;100811.13;5194021;28;20032;-72
2023/11/17 11:30:46;;;;;;;6.88;1.92;;;;;;;8.54;89.49;100823.25;5181860;28;20057;-71
2023/11/17 11:33:20;;;;;;;6.03;1.77;;;;;;;8.52;89.35;100825.03;5169774;28;20045;-72
2023/11/17 11:35:51;;;;;;;3.83;1.50;;;;;;;8.59;88.70;100824.00;5201715;28;20036;-73
2023/11/17 11:38:21;;;;;;;5.43;1.65;;;;;;;8.52;89.66;100834.63;5198175;28;20033;-73
2023/11/17 11:40:52;;;;;;;5.10;1.80;;;;;;;8.53;89.27;100831.97;5200975;28;20036;-72
2023/11/17 11:43:22;;;;;;;5.63;2.42;;;;;;;8.44;89.60;100832.19;5197630;28;20538;-73
2023/11/17 11:45:55;;;;;;;6.03;1.88;;;;;;;8.58;90.29;100834.47;5201656;28;20037;-72
2023/11/17 11:48:26;;;;;;;3.97;1.60;;;;;;;8.51;89.78;100838.09;5204485;28;20115;-71